sensor_id;sensor_type;location;lat;lon;timestamp;pressure;altitude;pressure_sealevel;temperature;humidity
56811;BME280;42691;47.234;27.494;2022-10-16T00:00:32;100493.38;;;15.52;100.00
56811;BME280;42691;47.234;27.494;2022-10-16T00:02:58;100502.25;;;15.50;100.00
56811;BME280;42691;47.234;27.494;2022-10-16T00:05:23;100508.53;;;15.47;100.00
56811;BME280;42691;47.234;27.494;2022-10-16T00:07:49;100501.75;;;15.43;100.00
56811;BME280;42691;47.234;27.494;2022-10-16T00:10:14;100505.47;;;15.39;100.00
56811;BME280;42691;47.234;27.494;2022-10-16T00:12:40;100495.50;;;15.30;100.00
56811;BME280;42691;47.234;27.494;2022-10-16T00:15:05;100500.75;;;15.30;100.00
56811;BME280;42691;47.234;27.494;2022-10-16T00:17:31;100502.78;;;15.25;100.00
56811;BME280;42691;47.234;27.494;2022-10-16T00:19:57;100481.53;;;15.14;100.00
56811;BME280;42691;47.234;27.494;2022-10-16T00:22:23;100485.06;;;15.13;100.00
56811;BME280;42691;47.234;27.494;2022-10-16T00:24:48;100507.41;;;15.20;100.00
56811;BME280;42691;47.234;27.494;2022-10-16T00:27:14;100496.16;;;15.18;100.00
56811;BME280;42691;47.234;27.494;2022-10-16T00:29:39;100506.72;;;15.16;100.00
56811;BME280;42691;47.234;27.494;2022-10-16T00:32:05;100504.19;;;15.15;100.00
56811;BME280;42691;47.234;27.494;2022-10-16T00:34:30;100505.19;;;15.12;100.00
56811;BME280;42691;47.234;27.494;2022-10-16T00:36:56;100502.56;;;15.12;100.00
56811;BME280;42691;47.234;27.494;2022-10-16T00:39:21;100509.59;;;15.12;100.00
56811;BME280;42691;47.234;27.494;2022-10-16T00:41:47;100503.59;;;15.10;100.00
56811;BME280;42691;47.234;27.494;2022-10-16T00:49:57;100505.78;;;15.01;100.00
56811;BME280;42691;47.234;27.494;2022-10-16T00:52:23;100502.38;;;14.99;100.00
56811;BME280;42691;47.234;27.494;2022-10-16T00:54:49;100507.78;;;14.96;100.00
56811;BME280;42691;47.234;27.494;2022-10-16T00:57:16;100501.88;;;14.93;100.00
56811;BME280;42691;47.234;27.494;2022-10-16T00:59:42;100503.66;;;14.92;100.00
56811;BME280;42691;47.234;27.494;2022-10-16T01:02:10;100502.13;;;14.88;100.00
56811;BME280;42691;47.234;27.494;2022-10-16T01:04:42;100500.47;;;14.86;100.00
56811;BME280;42691;47.234;27.494;2022-10-16T01:12:48;100502.91;;;14.73;100.00
56811;BME280;42691;47.234;27.494;2022-10-16T01:20:30;100452.81;;;14.29;100.00
56811;BME280;42691;47.234;27.494;2022-10-16T01:25:52;100510.41;;;14.63;100.00
56811;BME280;42691;47.234;27.494;2022-10-16T01:28:13;100508.72;;;14.62;100.00
56811;BME280;42691;47.234;27.494;2022-10-16T01:30:42;100487.69;;;14.47;100.00
56811;BME280;42691;47.234;27.494;2022-10-16T01:33:15;100506.78;;;14.49;100.00
56811;BME280;42691;47.234;27.494;2022-10-16T01:35:46;100515.28;;;14.54;100.00
56811;BME280;42691;47.234;27.494;2022-10-16T01:38:17;100510.25;;;14.49;100.00
56811;BME280;42691;47.234;27.494;2022-10-16T01:40:49;100513.88;;;14.47;100.00
56811;BME280;42691;47.234;27.494;2022-10-16T01:43:19;100512.16;;;14.46;100.00
56811;BME280;42691;47.234;27.494;2022-10-16T01:45:47;100518.25;;;14.46;100.00
56811;BME280;42691;47.234;27.494;2022-10-16T01:48:16;100518.34;;;14.45;100.00
56811;BME280;42691;47.234;27.494;2022-10-16T01:50:44;100510.06;;;14.35;100.00
56811;BME280;42691;47.234;27.494;2022-10-16T01:53:13;100526.47;;;14.38;100.00
56811;BME280;42691;47.234;27.494;2022-10-16T01:55:43;100528.47;;;14.33;100.00
56811;BME280;42691;47.234;27.494;2022-10-16T01:58:12;100528.78;;;14.27;100.00
56811;BME280;42691;47.234;27.494;2022-10-16T02:00:39;100520.41;;;14.21;100.00
56811;BME280;42691;47.234;27.494;2022-10-16T02:03:06;100525.88;;;14.16;100.00
56811;BME280;42691;47.234;27.494;2022-10-16T02:05:46;100527.72;;;14.14;100.00
56811;BME280;42691;47.234;27.494;2022-10-16T02:08:12;100527.72;;;14.14;100.00
56811;BME280;42691;47.234;27.494;2022-10-16T02:10:39;100536.47;;;14.13;100.00
56811;BME280;42691;47.234;27.494;2022-10-16T02:13:16;100511.13;;;13.96;100.00
56811;BME280;42691;47.234;27.494;2022-10-16T02:15:42;100541.06;;;14.08;100.00
56811;BME280;42691;47.234;27.494;2022-10-16T02:18:09;100538.44;;;14.08;100.00
56811;BME280;42691;47.234;27.494;2022-10-16T02:23:33;100528.81;;;13.91;100.00
56811;BME280;42691;47.234;27.494;2022-10-16T02:26:03;100551.97;;;13.99;100.00
56811;BME280;42691;47.234;27.494;2022-10-16T02:28:40;100552.13;;;13.96;100.00
56811;BME280;42691;47.234;27.494;2022-10-16T02:31:10;100554.06;;;13.92;100.00
56811;BME280;42691;47.234;27.494;2022-10-16T02:33:40;100547.28;;;13.88;100.00
56811;BME280;42691;47.234;27.494;2022-10-16T02:36:07;100554.44;;;13.85;100.00
56811;BME280;42691;47.234;27.494;2022-10-16T02:38:33;100551.97;;;13.82;100.00
56811;BME280;42691;47.234;27.494;2022-10-16T02:41:00;100548.56;;;13.80;100.00
56811;BME280;42691;47.234;27.494;2022-10-16T02:43:26;100548.56;;;13.80;100.00
56811;BME280;42691;47.234;27.494;2022-10-16T02:45:52;100540.34;;;13.68;100.00
56811;BME280;42691;47.234;27.494;2022-10-16T02:48:17;100550.59;;;13.73;100.00
56811;BME280;42691;47.234;27.494;2022-10-16T02:50:43;100554.34;;;13.67;100.00
56811;BME280;42691;47.234;27.494;2022-10-16T02:53:08;100556.19;;;13.65;100.00
56811;BME280;42691;47.234;27.494;2022-10-16T02:55:33;100559.88;;;13.61;100.00
56811;BME280;42691;47.234;27.494;2022-10-16T02:57:59;100554.78;;;13.58;100.00
56811;BME280;42691;47.234;27.494;2022-10-16T03:00:24;100558.31;;;13.57;100.00
56811;BME280;42691;47.234;27.494;2022-10-16T03:02:50;100563.84;;;13.51;100.00
56811;BME280;42691;47.234;27.494;2022-10-16T03:05:15;100554.06;;;13.36;100.00
56811;BME280;42691;47.234;27.494;2022-10-16T03:07:41;100567.72;;;13.42;100.00
56811;BME280;42691;47.234;27.494;2022-10-16T03:10:07;100567.81;;;13.41;100.00
56811;BME280;42691;47.234;27.494;2022-10-16T03:12:33;100574.03;;;13.38;100.00
56811;BME280;42691;47.234;27.494;2022-10-16T03:14:58;100581.78;;;13.40;100.00
56811;BME280;42691;47.234;27.494;2022-10-16T03:17:24;100583.28;;;13.45;100.00
56811;BME280;42691;47.234;27.494;2022-10-16T03:19:50;100518.03;;;13.05;100.00
56811;BME280;42691;47.234;27.494;2022-10-16T03:22:16;100579.94;;;13.42;100.00
56811;BME280;42691;47.234;27.494;2022-10-16T03:24:42;100590.84;;;13.52;100.00
56811;BME280;42691;47.234;27.494;2022-10-16T03:27:07;100594.28;;;13.52;100.00
56811;BME280;42691;47.234;27.494;2022-10-16T03:29:33;100600.28;;;13.54;100.00
56811;BME280;42691;47.234;27.494;2022-10-16T03:31:59;100604.59;;;13.55;100.00
56811;BME280;42691;47.234;27.494;2022-10-16T03:34:24;100607.16;;;13.57;100.00
56811;BME280;42691;47.234;27.494;2022-10-16T03:36:50;100600.16;;;13.57;100.00
56811;BME280;42691;47.234;27.494;2022-10-16T03:39:16;100600.09;;;13.59;100.00
56811;BME280;42691;47.234;27.494;2022-10-16T03:41:41;100596.63;;;13.58;100.00
56811;BME280;42691;47.234;27.494;2022-10-16T03:44:07;100601.72;;;13.61;100.00
56811;BME280;42691;47.234;27.494;2022-10-16T03:46:32;100597.31;;;13.62;100.00
56811;BME280;42691;47.234;27.494;2022-10-16T03:48:58;100606.94;;;13.61;100.00
56811;BME280;42691;47.234;27.494;2022-10-16T03:51:23;100603.69;;;13.56;100.00
56811;BME280;42691;47.234;27.494;2022-10-16T03:53:49;100605.38;;;13.57;100.00
56811;BME280;42691;47.234;27.494;2022-10-16T03:56:14;100588.50;;;13.45;100.00
56811;BME280;42691;47.234;27.494;2022-10-16T03:58:40;100599.53;;;13.52;100.00
56811;BME280;42691;47.234;27.494;2022-10-16T04:01:05;100596.06;;;13.52;100.00
56811;BME280;42691;47.234;27.494;2022-10-16T04:03:31;100599.53;;;13.52;100.00
56811;BME280;42691;47.234;27.494;2022-10-16T04:05:56;100602.13;;;13.52;100.00
56811;BME280;42691;47.234;27.494;2022-10-16T04:08:21;100604.69;;;13.54;100.00
56811;BME280;42691;47.234;27.494;2022-10-16T04:10:47;100595.06;;;13.54;100.00
56811;BME280;42691;47.234;27.494;2022-10-16T04:13:13;100602.91;;;13.54;100.00
56811;BME280;42691;47.234;27.494;2022-10-16T04:15:38;100591.81;;;13.49;100.00
56811;BME280;42691;47.234;27.494;2022-10-16T04:18:04;100608.91;;;13.56;100.00
56811;BME280;42691;47.234;27.494;2022-10-16T04:20:30;100603.69;;;13.56;100.00
56811;BME280;42691;47.234;27.494;2022-10-16T04:22:56;100603.84;;;13.53;100.00
56811;BME280;42691;47.234;27.494;2022-10-16T04:25:21;100607.44;;;13.51;100.00
56811;BME280;42691;47.234;27.494;2022-10-16T04:27:47;100597.53;;;13.38;100.00
56811;BME280;42691;47.234;27.494;2022-10-16T04:30:13;100615.41;;;13.48;100.00
56811;BME280;42691;47.234;27.494;2022-10-16T04:32:39;100620.66;;;13.48;100.00
56811;BME280;42691;47.234;27.494;2022-10-16T04:35:05;100618.94;;;13.47;100.00
56811;BME280;42691;47.234;27.494;2022-10-16T04:37:30;100617.31;;;13.44;100.00
56811;BME280;42691;47.234;27.494;2022-10-16T04:39:56;100623.19;;;13.49;100.00
56811;BME280;42691;47.234;27.494;2022-10-16T04:42:21;100622.47;;;13.45;100.00
56811;BME280;42691;47.234;27.494;2022-10-16T04:44:47;100629.19;;;13.51;100.00
56811;BME280;42691;47.234;27.494;2022-10-16T04:47:13;100643.13;;;13.52;100.00
56811;BME280;42691;47.234;27.494;2022-10-16T04:49:38;100631.38;;;13.41;100.00
56811;BME280;42691;47.234;27.494;2022-10-16T04:52:04;100644.09;;;13.49;100.00
56811;BME280;42691;47.234;27.494;2022-10-16T04:54:30;100645.03;;;13.48;100.00
56811;BME280;42691;47.234;27.494;2022-10-16T04:56:55;100646.72;;;13.49;100.00
56811;BME280;42691;47.234;27.494;2022-10-16T04:59:23;100652.72;;;13.51;100.00
56811;BME280;42691;47.234;27.494;2022-10-16T05:01:48;100653.63;;;13.50;100.00
56811;BME280;42691;47.234;27.494;2022-10-16T05:04:14;100659.50;;;13.55;100.00
56811;BME280;42691;47.234;27.494;2022-10-16T05:06:40;100659.44;;;13.57;100.00
56811;BME280;42691;47.234;27.494;2022-10-16T05:09:06;100657.53;;;13.60;100.00
56811;BME280;42691;47.234;27.494;2022-10-16T05:11:32;100662.63;;;13.63;100.00
56811;BME280;42691;47.234;27.494;2022-10-16T05:13:58;100664.94;;;13.69;100.00
56811;BME280;42691;47.234;27.494;2022-10-16T05:16:24;100672.25;;;13.82;100.00
56811;BME280;42691;47.234;27.494;2022-10-16T05:18:51;100675.22;;;13.93;100.00
56811;BME280;42691;47.234;27.494;2022-10-16T05:21:17;100666.31;;;13.97;100.00
56811;BME280;42691;47.234;27.494;2022-10-16T05:23:42;100677.50;;;14.19;100.00
56811;BME280;42691;47.234;27.494;2022-10-16T05:26:08;100671.03;;;14.26;100.00
56811;BME280;42691;47.234;27.494;2022-10-16T05:28:34;100695.44;;;14.46;100.00
56811;BME280;42691;47.234;27.494;2022-10-16T05:31:04;100689.00;;;14.53;100.00
56811;BME280;42691;47.234;27.494;2022-10-16T05:33:30;100696.88;;;14.70;100.00
56811;BME280;42691;47.234;27.494;2022-10-16T05:35:55;100703.34;;;14.80;100.00
56811;BME280;42691;47.234;27.494;2022-10-16T05:38:20;100696.75;;;14.90;100.00
56811;BME280;42691;47.234;27.494;2022-10-16T05:40:52;100699.91;;;14.97;100.00
56811;BME280;42691;47.234;27.494;2022-10-16T05:43:18;100705.22;;;15.13;100.00
56811;BME280;42691;47.234;27.494;2022-10-16T05:45:44;100703.81;;;15.23;100.00
56811;BME280;42691;47.234;27.494;2022-10-16T05:48:09;100711.84;;;15.37;100.00
56811;BME280;42691;47.234;27.494;2022-10-16T05:50:34;100717.13;;;15.53;100.00
56811;BME280;42691;47.234;27.494;2022-10-16T05:53:00;100722.47;;;15.69;100.00
56811;BME280;42691;47.234;27.494;2022-10-16T05:55:25;100723.50;;;15.82;100.00
56811;BME280;42691;47.234;27.494;2022-10-16T05:57:54;100728.78;;;15.98;100.00
56811;BME280;42691;47.234;27.494;2022-10-16T06:00:19;100726.53;;;16.07;100.00
56811;BME280;42691;47.234;27.494;2022-10-16T06:02:45;100732.03;;;16.18;100.00
56811;BME280;42691;47.234;27.494;2022-10-16T06:05:11;100735.84;;;16.29;100.00
56811;BME280;42691;47.234;27.494;2022-10-16T06:07:36;100733.66;;;16.37;100.00
56811;BME280;42691;47.234;27.494;2022-10-16T06:10:03;100731.94;;;16.51;100.00
56811;BME280;42691;47.234;27.494;2022-10-16T06:12:29;100728.31;;;16.54;100.00
56811;BME280;42691;47.234;27.494;2022-10-16T06:14:54;100743.94;;;16.73;100.00
56811;BME280;42691;47.234;27.494;2022-10-16T06:17:20;100740.28;;;16.75;100.00
56811;BME280;42691;47.234;27.494;2022-10-16T06:19:45;100742.19;;;16.87;100.00
56811;BME280;42691;47.234;27.494;2022-10-16T06:22:10;100742.41;;;16.99;100.00
56811;BME280;42691;47.234;27.494;2022-10-16T06:24:36;100736.97;;;17.02;100.00
56811;BME280;42691;47.234;27.494;2022-10-16T06:27:03;100760.81;;;17.14;100.00
56811;BME280;42691;47.234;27.494;2022-10-16T06:29:28;100762.41;;;17.17;100.00
56811;BME280;42691;47.234;27.494;2022-10-16T06:31:54;100761.47;;;17.18;100.00
56811;BME280;42691;47.234;27.494;2022-10-16T06:34:19;100772.00;;;17.18;100.00
56811;BME280;42691;47.234;27.494;2022-10-16T06:36:45;100766.53;;;17.21;100.00
56811;BME280;42691;47.234;27.494;2022-10-16T06:39:10;100761.28;;;17.21;100.00
56811;BME280;42691;47.234;27.494;2022-10-16T06:41:36;100767.88;;;17.28;100.00
56811;BME280;42691;47.234;27.494;2022-10-16T06:44:05;100780.16;;;17.58;100.00
56811;BME280;42691;47.234;27.494;2022-10-16T06:46:31;100766.44;;;17.53;100.00
56811;BME280;42691;47.234;27.494;2022-10-16T06:48:56;100738.00;;;17.29;100.00
56811;BME280;42691;47.234;27.494;2022-10-16T06:51:24;100734.44;;;17.30;100.00
56811;BME280;42691;47.234;27.494;2022-10-16T06:53:52;100771.50;;;17.56;100.00
56811;BME280;42691;47.234;27.494;2022-10-16T06:56:19;100768.69;;;17.59;100.00
56811;BME280;42691;47.234;27.494;2022-10-16T06:58:46;100769.25;;;17.64;100.00
56811;BME280;42691;47.234;27.494;2022-10-16T07:01:13;100773.69;;;17.63;100.00
56811;BME280;42691;47.234;27.494;2022-10-16T07:03:40;100773.03;;;17.60;100.00
56811;BME280;42691;47.234;27.494;2022-10-16T07:06:07;100774.72;;;17.61;100.00
56811;BME280;42691;47.234;27.494;2022-10-16T07:08:38;100779.03;;;17.62;100.00
56811;BME280;42691;47.234;27.494;2022-10-16T07:11:09;100774.44;;;17.65;100.00
56811;BME280;42691;47.234;27.494;2022-10-16T07:13:39;100775.03;;;17.70;100.00
56811;BME280;42691;47.234;27.494;2022-10-16T07:18:34;100787.34;;;17.70;100.00
56811;BME280;42691;47.234;27.494;2022-10-16T07:21:23;100789.03;;;17.71;100.00
56811;BME280;42691;47.234;27.494;2022-10-16T07:23:54;100783.03;;;17.69;100.00
56811;BME280;42691;47.234;27.494;2022-10-16T07:26:21;100799.06;;;17.64;99.90
56811;BME280;42691;47.234;27.494;2022-10-16T07:28:46;100787.44;;;17.68;99.33
56811;BME280;42691;47.234;27.494;2022-10-16T07:31:13;100802.63;;;17.63;99.48
56811;BME280;42691;47.234;27.494;2022-10-16T07:33:40;100806.00;;;17.51;96.76
56811;BME280;42691;47.234;27.494;2022-10-16T07:36:07;100803.84;;;17.58;100.00
56811;BME280;42691;47.234;27.494;2022-10-16T07:38:33;100790.88;;;17.55;100.00
56811;BME280;42691;47.234;27.494;2022-10-16T07:41:04;100784.28;;;17.47;96.86
56811;BME280;42691;47.234;27.494;2022-10-16T07:43:31;100805.63;;;17.57;98.12
56811;BME280;42691;47.234;27.494;2022-10-16T07:45:57;100816.16;;;17.57;96.32
56811;BME280;42691;47.234;27.494;2022-10-16T07:48:23;100811.91;;;17.55;97.07
56811;BME280;42691;47.234;27.494;2022-10-16T07:50:49;100821.59;;;17.54;97.54
56811;BME280;42691;47.234;27.494;2022-10-16T07:53:15;100819.53;;;17.59;96.45
56811;BME280;42691;47.234;27.494;2022-10-16T07:55:41;100814.09;;;17.62;96.53
56811;BME280;42691;47.234;27.494;2022-10-16T07:58:07;100821.22;;;17.60;98.58
56811;BME280;42691;47.234;27.494;2022-10-16T08:00:32;100816.25;;;17.56;96.26
56811;BME280;42691;47.234;27.494;2022-10-16T08:02:58;100810.03;;;17.57;96.43
56811;BME280;42691;47.234;27.494;2022-10-16T08:05:28;100802.53;;;17.50;97.69
56811;BME280;42691;47.234;27.494;2022-10-16T08:07:54;100807.31;;;17.58;96.76
56811;BME280;42691;47.234;27.494;2022-10-16T08:10:21;100814.75;;;17.66;97.20
56811;BME280;42691;47.234;27.494;2022-10-16T08:12:47;100811.59;;;17.75;98.37
56811;BME280;42691;47.234;27.494;2022-10-16T08:15:12;100806.72;;;17.83;99.29
56811;BME280;42691;47.234;27.494;2022-10-16T08:17:38;100812.13;;;17.66;92.60
56811;BME280;42691;47.234;27.494;2022-10-16T08:20:04;100810.03;;;17.57;91.17
56811;BME280;42691;47.234;27.494;2022-10-16T08:22:30;100816.47;;;17.67;92.36
56811;BME280;42691;47.234;27.494;2022-10-16T08:24:56;100817.66;;;17.61;94.04
56811;BME280;42691;47.234;27.494;2022-10-16T08:27:21;100811.91;;;17.55;93.76
56811;BME280;42691;47.234;27.494;2022-10-16T08:29:48;100802.81;;;17.60;95.81
56811;BME280;42691;47.234;27.494;2022-10-16T08:32:14;100802.44;;;17.66;94.70
56811;BME280;42691;47.234;27.494;2022-10-16T08:34:39;100800.69;;;17.67;92.20
56811;BME280;42691;47.234;27.494;2022-10-16T08:37:05;100806.81;;;17.81;97.44
56811;BME280;42691;47.234;27.494;2022-10-16T08:39:32;100822.34;;;17.86;96.97
56811;BME280;42691;47.234;27.494;2022-10-16T08:50:26;100803.47;;;17.94;94.44
56811;BME280;42691;47.234;27.494;2022-10-16T08:52:53;100806.84;;;17.96;93.57
56811;BME280;42691;47.234;27.494;2022-10-16T08:55:41;100808.44;;;17.84;85.01
56811;BME280;42691;47.234;27.494;2022-10-16T08:58:18;100809.75;;;17.91;86.50
56811;BME280;42691;47.234;27.494;2022-10-16T09:00:47;100822.34;;;17.86;89.53
56811;BME280;42691;47.234;27.494;2022-10-16T09:05:50;100829.50;;;17.84;83.43
56811;BME280;42691;47.234;27.494;2022-10-16T09:08:36;100816.50;;;17.81;83.39
56811;BME280;42691;47.234;27.494;2022-10-16T09:11:18;100817.25;;;17.83;84.82
56811;BME280;42691;47.234;27.494;2022-10-16T09:16:32;100820.66;;;17.99;88.38
56811;BME280;42691;47.234;27.494;2022-10-16T09:19:17;100811.06;;;17.98;87.37
56811;BME280;42691;47.234;27.494;2022-10-16T09:21:46;100785.47;;;17.72;86.09
56811;BME280;42691;47.234;27.494;2022-10-16T09:24:19;100815.69;;;17.95;83.68
56811;BME280;42691;47.234;27.494;2022-10-16T09:26:47;100824.22;;;17.98;83.47
56811;BME280;42691;47.234;27.494;2022-10-16T09:29:13;100814.19;;;17.91;85.25
56811;BME280;42691;47.234;27.494;2022-10-16T09:31:39;100814.28;;;17.89;82.73
56811;BME280;42691;47.234;27.494;2022-10-16T09:34:06;100810.28;;;17.68;82.36
56811;BME280;42691;47.234;27.494;2022-10-16T09:36:44;100825.75;;;17.88;86.33
56811;BME280;42691;47.234;27.494;2022-10-16T09:39:11;100817.38;;;17.96;86.10
56811;BME280;42691;47.234;27.494;2022-10-16T09:41:39;100794.34;;;17.85;84.39
56811;BME280;42691;47.234;27.494;2022-10-16T09:44:30;100810.69;;;17.90;82.07
56811;BME280;42691;47.234;27.494;2022-10-16T09:47:04;100808.25;;;17.87;83.04
56811;BME280;42691;47.234;27.494;2022-10-16T09:49:30;100807.69;;;17.96;86.16
56811;BME280;42691;47.234;27.494;2022-10-16T09:52:12;100804.97;;;17.98;83.21
56811;BME280;42691;47.234;27.494;2022-10-16T09:54:49;100801.38;;;17.99;83.18
56811;BME280;42691;47.234;27.494;2022-10-16T09:57:14;100801.28;;;18.00;86.47
56811;BME280;42691;47.234;27.494;2022-10-16T09:59:48;100798.09;;;18.09;87.78
56811;BME280;42691;47.234;27.494;2022-10-16T10:02:16;100808.63;;;18.09;83.02
56811;BME280;42691;47.234;27.494;2022-10-16T10:04:50;100819.72;;;18.00;82.29
56811;BME280;42691;47.234;27.494;2022-10-16T10:07:27;100813.41;;;18.03;82.33
56811;BME280;42691;47.234;27.494;2022-10-16T10:09:55;100810.97;;;18.14;83.90
56811;BME280;42691;47.234;27.494;2022-10-16T10:12:26;100813.16;;;18.22;85.44
56811;BME280;42691;47.234;27.494;2022-10-16T10:14:54;100804.31;;;18.23;85.07
56811;BME280;42691;47.234;27.494;2022-10-16T10:17:26;100807.88;;;18.22;80.68
56811;BME280;42691;47.234;27.494;2022-10-16T10:19:57;100824.97;;;18.15;79.18
56811;BME280;42691;47.234;27.494;2022-10-16T10:22:44;100810.50;;;18.07;76.56
56811;BME280;42691;47.234;27.494;2022-10-16T10:28:00;100808.16;;;18.03;74.53
56811;BME280;42691;47.234;27.494;2022-10-16T10:33:34;100796.59;;;18.05;77.51
56811;BME280;42691;47.234;27.494;2022-10-16T10:36:20;100806.19;;;18.06;77.81
56811;BME280;42691;47.234;27.494;2022-10-16T10:38:53;100797.25;;;18.09;75.69
56811;BME280;42691;47.234;27.494;2022-10-16T10:57:37;100752.13;;;18.01;73.81
56811;BME280;42691;47.234;27.494;2022-10-16T11:00:21;100768.63;;;18.17;77.37
56811;BME280;42691;47.234;27.494;2022-10-16T11:03:18;100764.03;;;18.21;77.18
56811;BME280;42691;47.234;27.494;2022-10-16T11:05:52;100765.75;;;18.22;73.82
56811;BME280;42691;47.234;27.494;2022-10-16T11:08:55;100758.59;;;18.24;76.52
56811;BME280;42691;47.234;27.494;2022-10-16T11:15:01;100763.38;;;18.17;70.29
56811;BME280;42691;47.234;27.494;2022-10-16T11:20:34;100763.56;;;18.14;70.69
56811;BME280;42691;47.234;27.494;2022-10-16T11:23:14;100760.19;;;18.26;77.03
56811;BME280;42691;47.234;27.494;2022-10-16T11:25:43;100721.72;;;18.24;80.44
56811;BME280;42691;47.234;27.494;2022-10-16T11:28:20;100745.34;;;18.52;81.48
56811;BME280;42691;47.234;27.494;2022-10-16T11:30:57;100738.78;;;18.45;74.80
56811;BME280;42691;47.234;27.494;2022-10-16T11:36:19;100744.09;;;18.31;71.64
56811;BME280;42691;47.234;27.494;2022-10-16T11:41:35;100744.75;;;18.34;69.97
56811;BME280;42691;47.234;27.494;2022-10-16T11:45:08;100755.69;;;18.55;79.76
56811;BME280;42691;47.234;27.494;2022-10-16T11:47:35;100754.72;;;18.56;75.78
56811;BME280;42691;47.234;27.494;2022-10-16T11:50:24;100758.72;;;18.49;72.03
56811;BME280;42691;47.234;27.494;2022-10-16T11:55:45;100754.03;;;18.40;69.87
56811;BME280;42691;47.234;27.494;2022-10-16T11:58:37;100752.03;;;18.43;68.95
56811;BME280;42691;47.234;27.494;2022-10-16T12:03:48;100758.63;;;18.51;68.83
56811;BME280;42691;47.234;27.494;2022-10-16T12:06:36;100754.94;;;18.53;69.85
56811;BME280;42691;47.234;27.494;2022-10-16T12:09:03;100755.13;;;18.50;70.90
56811;BME280;42691;47.234;27.494;2022-10-16T12:16:50;100763.59;;;18.69;76.19
56811;BME280;42691;47.234;27.494;2022-10-16T12:19:20;100764.34;;;18.71;73.97
56811;BME280;42691;47.234;27.494;2022-10-16T12:21:46;100768.03;;;18.69;72.02
56811;BME280;42691;47.234;27.494;2022-10-16T12:24:35;100761.16;;;18.66;68.79
56811;BME280;42691;47.234;27.494;2022-10-16T12:27:17;100767.06;;;18.70;68.72
56811;BME280;42691;47.234;27.494;2022-10-16T12:29:47;100759.66;;;18.62;68.66
56811;BME280;42691;47.234;27.494;2022-10-16T12:32:37;100762.09;;;18.51;67.90
56811;BME280;42691;47.234;27.494;2022-10-16T12:35:05;100762.28;;;18.48;67.11
56811;BME280;42691;47.234;27.494;2022-10-16T12:37:34;100768.31;;;18.50;63.48
56811;BME280;42691;47.234;27.494;2022-10-16T12:40:22;100755.31;;;18.47;64.65
56811;BME280;42691;47.234;27.494;2022-10-16T12:42:48;100769.59;;;18.57;66.23
56811;BME280;42691;47.234;27.494;2022-10-16T12:45:29;100771.91;;;18.63;69.96
56811;BME280;42691;47.234;27.494;2022-10-16T12:47:57;100767.56;;;18.62;65.79
56811;BME280;42691;47.234;27.494;2022-10-16T12:50:27;100770.22;;;18.62;65.85
56811;BME280;42691;47.234;27.494;2022-10-16T12:52:53;100759.34;;;18.53;63.59
56811;BME280;42691;47.234;27.494;2022-10-16T12:55:21;100761.91;;;18.54;61.96
56811;BME280;42691;47.234;27.494;2022-10-16T12:58:03;100765.47;;;18.53;62.80
56811;BME280;42691;47.234;27.494;2022-10-16T13:01:06;100777.59;;;18.56;64.74
56811;BME280;42691;47.234;27.494;2022-10-16T13:09:11;100772.91;;;18.61;65.41
56811;BME280;42691;47.234;27.494;2022-10-16T13:19:29;100768.31;;;18.64;66.30
56811;BME280;42691;47.234;27.494;2022-10-16T13:30:01;100777.47;;;18.86;69.75
56811;BME280;42691;47.234;27.494;2022-10-16T13:32:27;100781.59;;;18.90;69.99
56811;BME280;42691;47.234;27.494;2022-10-16T13:34:54;100776.28;;;18.77;66.70
56811;BME280;42691;47.234;27.494;2022-10-16T13:37:22;100778.28;;;18.73;63.94
56811;BME280;42691;47.234;27.494;2022-10-16T13:39:48;100790.50;;;18.74;63.19
56811;BME280;42691;47.234;27.494;2022-10-16T13:42:25;100779.13;;;18.74;63.80
56811;BME280;42691;47.234;27.494;2022-10-16T13:44:53;100780.69;;;18.77;65.66
56811;BME280;42691;47.234;27.494;2022-10-16T13:47:24;100777.13;;;18.78;64.96
56811;BME280;42691;47.234;27.494;2022-10-16T13:50:10;100779.34;;;18.84;67.51
56811;BME280;42691;47.234;27.494;2022-10-16T13:52:37;100781.59;;;18.90;70.14
56811;BME280;42691;47.234;27.494;2022-10-16T13:55:04;100785.91;;;18.91;69.50
56811;BME280;42691;47.234;27.494;2022-10-16T13:57:35;100783.28;;;18.91;68.92
56811;BME280;42691;47.234;27.494;2022-10-16T14:00:00;100778.31;;;18.86;68.24
56811;BME280;42691;47.234;27.494;2022-10-16T14:02:35;100785.81;;;18.92;67.50
56811;BME280;42691;47.234;27.494;2022-10-16T14:05:04;100789.69;;;18.87;63.44
56811;BME280;42691;47.234;27.494;2022-10-16T14:07:34;100790.75;;;18.84;65.73
56811;BME280;42691;47.234;27.494;2022-10-16T14:10:06;100793.28;;;18.86;66.35
56811;BME280;42691;47.234;27.494;2022-10-16T14:12:33;100782.53;;;18.89;66.23
56811;BME280;42691;47.234;27.494;2022-10-16T14:14:59;100786.31;;;18.85;66.76
56811;BME280;42691;47.234;27.494;2022-10-16T14:17:33;100782.72;;;18.86;68.22
56811;BME280;42691;47.234;27.494;2022-10-16T14:20:03;100779.16;;;18.87;68.60
56811;BME280;42691;47.234;27.494;2022-10-16T14:22:40;100776.50;;;18.87;67.07
56811;BME280;42691;47.234;27.494;2022-10-16T14:25:35;100787.16;;;18.85;68.17
56811;BME280;42691;47.234;27.494;2022-10-16T14:28:20;100788.84;;;18.86;67.10
56811;BME280;42691;47.234;27.494;2022-10-16T14:30:57;100795.06;;;18.85;67.80